sensor_id;sensor_type;location;lat;lon;timestamp;P1;durP1;ratioP1;P2;durP2;ratioP2
12474;SDS011;6302;42.624;23.334;2023-04-03T00:00:30;13.40;;;6.57;;
12474;SDS011;6302;42.624;23.334;2023-04-03T00:02:56;15.63;;;7.97;;
12474;SDS011;6302;42.624;23.334;2023-04-03T00:05:23;16.33;;;7.70;;
12474;SDS011;6302;42.624;23.334;2023-04-03T00:07:52;19.33;;;8.17;;
12474;SDS011;6302;42.624;23.334;2023-04-03T00:10:19;16.30;;;7.50;;
12474;SDS011;6302;42.624;23.334;2023-04-03T00:12:46;15.33;;;6.17;;
12474;SDS011;6302;42.624;23.334;2023-04-03T00:15:13;12.63;;;5.07;;
12474;SDS011;6302;42.624;23.334;2023-04-03T00:17:40;10.40;;;5.37;;
12474;SDS011;6302;42.624;23.334;2023-04-03T00:20:07;14.80;;;5.10;;
12474;SDS011;6302;42.624;23.334;2023-04-03T00:22:35;13.73;;;6.20;;
12474;SDS011;6302;42.624;23.334;2023-04-03T00:25:03;16.67;;;5.50;;
12474;SDS011;6302;42.624;23.334;2023-04-03T00:27:31;14.03;;;5.77;;
12474;SDS011;6302;42.624;23.334;2023-04-03T00:29:57;16.17;;;5.77;;
12474;SDS011;6302;42.624;23.334;2023-04-03T00:32:24;18.73;;;6.37;;
12474;SDS011;6302;42.624;23.334;2023-04-03T00:34:51;18.80;;;5.97;;
12474;SDS011;6302;42.624;23.334;2023-04-03T00:37:18;17.80;;;6.60;;
12474;SDS011;6302;42.624;23.334;2023-04-03T00:39:45;13.07;;;5.33;;
12474;SDS011;6302;42.624;23.334;2023-04-03T00:42:13;10.87;;;6.20;;
12474;SDS011;6302;42.624;23.334;2023-04-03T00:47:44;12.57;;;7.27;;
12474;SDS011;6302;42.624;23.334;2023-04-03T00:50:11;14.47;;;6.40;;
12474;SDS011;6302;42.624;23.334;2023-04-03T00:52:37;10.13;;;4.90;;
12474;SDS011;6302;42.624;23.334;2023-04-03T00:55:06;11.43;;;5.20;;
12474;SDS011;6302;42.624;23.334;2023-04-03T00:57:36;10.17;;;4.13;;
12474;SDS011;6302;42.624;23.334;2023-04-03T01:00:05;8.47;;;4.00;;
12474;SDS011;6302;42.624;23.334;2023-04-03T01:02:36;6.50;;;3.93;;
12474;SDS011;6302;42.624;23.334;2023-04-03T01:05:06;15.47;;;5.97;;
12474;SDS011;6302;42.624;23.334;2023-04-03T01:07:33;11.80;;;5.30;;
12474;SDS011;6302;42.624;23.334;2023-04-03T01:10:04;13.93;;;6.13;;
12474;SDS011;6302;42.624;23.334;2023-04-03T01:12:36;12.20;;;6.37;;
12474;SDS011;6302;42.624;23.334;2023-04-03T01:15:05;9.10;;;5.60;;
12474;SDS011;6302;42.624;23.334;2023-04-03T01:17:34;9.23;;;5.47;;
12474;SDS011;6302;42.624;23.334;2023-04-03T01:23:12;7.57;;;5.07;;
12474;SDS011;6302;42.624;23.334;2023-04-03T01:25:49;7.40;;;3.87;;
12474;SDS011;6302;42.624;23.334;2023-04-03T01:28:20;3.57;;;2.70;;
12474;SDS011;6302;42.624;23.334;2023-04-03T01:30:48;3.87;;;2.73;;
12474;SDS011;6302;42.624;23.334;2023-04-03T01:33:21;2.07;;;1.97;;
12474;SDS011;6302;42.624;23.334;2023-04-03T01:35:48;1.90;;;1.60;;
12474;SDS011;6302;42.624;23.334;2023-04-03T01:38:14;2.77;;;1.83;;
12474;SDS011;6302;42.624;23.334;2023-04-03T01:40:41;1.87;;;1.77;;
12474;SDS011;6302;42.624;23.334;2023-04-03T01:43:08;1.60;;;1.50;;
12474;SDS011;6302;42.624;23.334;2023-04-03T01:45:35;1.53;;;1.43;;
12474;SDS011;6302;42.624;23.334;2023-04-03T01:48:02;1.83;;;1.73;;
12474;SDS011;6302;42.624;23.334;2023-04-03T01:50:31;1.90;;;1.80;;
12474;SDS011;6302;42.624;23.334;2023-04-03T01:52:59;2.03;;;1.60;;
12474;SDS011;6302;42.624;23.334;2023-04-03T01:55:26;1.70;;;1.60;;
12474;SDS011;6302;42.624;23.334;2023-04-03T01:57:52;1.60;;;1.50;;
12474;SDS011;6302;42.624;23.334;2023-04-03T02:00:20;2.37;;;1.53;;
12474;SDS011;6302;42.624;23.334;2023-04-03T02:02:47;2.50;;;2.30;;
12474;SDS011;6302;42.624;23.334;2023-04-03T02:05:13;5.13;;;3.90;;
12474;SDS011;6302;42.624;23.334;2023-04-03T02:07:42;3.67;;;2.80;;
12474;SDS011;6302;42.624;23.334;2023-04-03T02:10:09;5.57;;;3.53;;
12474;SDS011;6302;42.624;23.334;2023-04-03T02:12:36;3.43;;;2.60;;
12474;SDS011;6302;42.624;23.334;2023-04-03T02:15:03;2.80;;;2.30;;
12474;SDS011;6302;42.624;23.334;2023-04-03T02:17:30;2.47;;;2.27;;
12474;SDS011;6302;42.624;23.334;2023-04-03T02:19:57;3.37;;;2.60;;
12474;SDS011;6302;42.624;23.334;2023-04-03T02:22:23;2.53;;;2.20;;
12474;SDS011;6302;42.624;23.334;2023-04-03T02:24:52;2.53;;;2.33;;
12474;SDS011;6302;42.624;23.334;2023-04-03T02:27:18;2.70;;;2.47;;
12474;SDS011;6302;42.624;23.334;2023-04-03T02:29:45;2.73;;;2.53;;
12474;SDS011;6302;42.624;23.334;2023-04-03T02:32:12;2.67;;;2.37;;
12474;SDS011;6302;42.624;23.334;2023-04-03T02:34:39;3.00;;;2.70;;
12474;SDS011;6302;42.624;23.334;2023-04-03T02:37:05;3.50;;;2.80;;
12474;SDS011;6302;42.624;23.334;2023-04-03T02:39:32;3.00;;;2.63;;
12474;SDS011;6302;42.624;23.334;2023-04-03T02:42:00;4.60;;;3.10;;
12474;SDS011;6302;42.624;23.334;2023-04-03T02:44:28;4.17;;;3.03;;
12474;SDS011;6302;42.624;23.334;2023-04-03T02:46:54;3.10;;;2.80;;
12474;SDS011;6302;42.624;23.334;2023-04-03T02:49:21;3.40;;;2.97;;
12474;SDS011;6302;42.624;23.334;2023-04-03T02:51:48;2.57;;;2.37;;
12474;SDS011;6302;42.624;23.334;2023-04-03T02:54:16;4.30;;;2.70;;
12474;SDS011;6302;42.624;23.334;2023-04-03T02:56:42;2.97;;;2.70;;
12474;SDS011;6302;42.624;23.334;2023-04-03T02:59:10;2.93;;;2.50;;
12474;SDS011;6302;42.624;23.334;2023-04-03T03:01:37;3.63;;;2.40;;
12474;SDS011;6302;42.624;23.334;2023-04-03T03:04:04;2.57;;;2.37;;
12474;SDS011;6302;42.624;23.334;2023-04-03T03:06:31;2.40;;;2.20;;
12474;SDS011;6302;42.624;23.334;2023-04-03T03:08:58;5.00;;;2.87;;
12474;SDS011;6302;42.624;23.334;2023-04-03T03:11:24;2.87;;;2.67;;
12474;SDS011;6302;42.624;23.334;2023-04-03T03:13:51;2.80;;;2.60;;
12474;SDS011;6302;42.624;23.334;2023-04-03T03:16:19;2.43;;;2.20;;
12474;SDS011;6302;42.624;23.334;2023-04-03T03:18:46;2.50;;;2.30;;
12474;SDS011;6302;42.624;23.334;2023-04-03T03:21:13;3.07;;;2.77;;
12474;SDS011;6302;42.624;23.334;2023-04-03T03:23:40;9.87;;;4.90;;
12474;SDS011;6302;42.624;23.334;2023-04-03T03:26:07;9.27;;;5.30;;
12474;SDS011;6302;42.624;23.334;2023-04-03T03:28:36;8.57;;;5.43;;
12474;SDS011;6302;42.624;23.334;2023-04-03T03:31:04;7.27;;;4.73;;
12474;SDS011;6302;42.624;23.334;2023-04-03T03:33:33;3.93;;;2.93;;
12474;SDS011;6302;42.624;23.334;2023-04-03T03:35:59;3.07;;;2.67;;
12474;SDS011;6302;42.624;23.334;2023-04-03T03:38:26;2.97;;;2.20;;
12474;SDS011;6302;42.624;23.334;2023-04-03T03:40:53;4.50;;;2.37;;
12474;SDS011;6302;42.624;23.334;2023-04-03T03:43:20;3.23;;;2.40;;
12474;SDS011;6302;42.624;23.334;2023-04-03T03:45:49;2.60;;;2.40;;
12474;SDS011;6302;42.624;23.334;2023-04-03T03:48:17;4.60;;;2.20;;
12474;SDS011;6302;42.624;23.334;2023-04-03T03:50:46;4.00;;;2.40;;
12474;SDS011;6302;42.624;23.334;2023-04-03T03:53:13;4.43;;;2.57;;
12474;SDS011;6302;42.624;23.334;2023-04-03T03:55:40;2.57;;;2.37;;
12474;SDS011;6302;42.624;23.334;2023-04-03T03:58:07;4.77;;;2.90;;
12474;SDS011;6302;42.624;23.334;2023-04-03T04:00:34;3.73;;;2.80;;
12474;SDS011;6302;42.624;23.334;2023-04-03T04:03:01;3.10;;;2.80;;
12474;SDS011;6302;42.624;23.334;2023-04-03T04:05:28;4.20;;;2.70;;
12474;SDS011;6302;42.624;23.334;2023-04-03T04:07:57;3.60;;;2.60;;
12474;SDS011;6302;42.624;23.334;2023-04-03T04:10:24;3.10;;;2.80;;
12474;SDS011;6302;42.624;23.334;2023-04-03T04:12:50;3.67;;;2.50;;
12474;SDS011;6302;42.624;23.334;2023-04-03T04:15:17;4.10;;;3.27;;
12474;SDS011;6302;42.624;23.334;2023-04-03T04:17:46;4.47;;;3.80;;
12474;SDS011;6302;42.624;23.334;2023-04-03T04:20:13;3.70;;;3.37;;
12474;SDS011;6302;42.624;23.334;2023-04-03T04:22:40;3.40;;;3.10;;
12474;SDS011;6302;42.624;23.334;2023-04-03T04:25:09;4.70;;;2.73;;
12474;SDS011;6302;42.624;23.334;2023-04-03T04:27:35;2.90;;;2.60;;
12474;SDS011;6302;42.624;23.334;2023-04-03T04:30:03;2.67;;;2.47;;
12474;SDS011;6302;42.624;23.334;2023-04-03T04:32:31;3.73;;;2.27;;
12474;SDS011;6302;42.624;23.334;2023-04-03T04:34:58;5.00;;;2.67;;
12474;SDS011;6302;42.624;23.334;2023-04-03T04:37:24;3.10;;;2.77;;
12474;SDS011;6302;42.624;23.334;2023-04-03T04:39:51;4.70;;;3.30;;
12474;SDS011;6302;42.624;23.334;2023-04-03T04:42:19;5.30;;;4.13;;
12474;SDS011;6302;42.624;23.334;2023-04-03T04:44:46;5.73;;;4.07;;
12474;SDS011;6302;42.624;23.334;2023-04-03T04:47:13;7.33;;;4.13;;
12474;SDS011;6302;42.624;23.334;2023-04-03T04:49:40;5.97;;;4.23;;
12474;SDS011;6302;42.624;23.334;2023-04-03T04:52:06;4.00;;;3.60;;
12474;SDS011;6302;42.624;23.334;2023-04-03T04:54:33;4.43;;;4.03;;
12474;SDS011;6302;42.624;23.334;2023-04-03T04:57:00;4.37;;;3.63;;
12474;SDS011;6302;42.624;23.334;2023-04-03T04:59:28;3.60;;;3.30;;
12474;SDS011;6302;42.624;23.334;2023-04-03T05:01:55;5.20;;;3.50;;
12474;SDS011;6302;42.624;23.334;2023-04-03T05:04:22;5.07;;;3.77;;
12474;SDS011;6302;42.624;23.334;2023-04-03T05:06:49;3.53;;;3.20;;
12474;SDS011;6302;42.624;23.334;2023-04-03T05:09:16;3.57;;;2.70;;
12474;SDS011;6302;42.624;23.334;2023-04-03T05:11:43;4.80;;;2.70;;
12474;SDS011;6302;42.624;23.334;2023-04-03T05:14:10;3.27;;;2.80;;
12474;SDS011;6302;42.624;23.334;2023-04-03T05:16:38;3.27;;;2.70;;
12474;SDS011;6302;42.624;23.334;2023-04-03T05:19:05;2.93;;;2.73;;
12474;SDS011;6302;42.624;23.334;2023-04-03T05:21:31;3.33;;;2.90;;
12474;SDS011;6302;42.624;23.334;2023-04-03T05:23:58;5.33;;;3.10;;
12474;SDS011;6302;42.624;23.334;2023-04-03T05:26:27;4.50;;;3.40;;
12474;SDS011;6302;42.624;23.334;2023-04-03T05:28:54;8.40;;;5.03;;
12474;SDS011;6302;42.624;23.334;2023-04-03T05:31:21;6.80;;;4.70;;
12474;SDS011;6302;42.624;23.334;2023-04-03T05:33:49;7.80;;;5.07;;
12474;SDS011;6302;42.624;23.334;2023-04-03T05:36:16;9.83;;;5.20;;
12474;SDS011;6302;42.624;23.334;2023-04-03T05:38:43;24.00;;;15.83;;
12474;SDS011;6302;42.624;23.334;2023-04-03T05:41:10;22.73;;;15.87;;
12474;SDS011;6302;42.624;23.334;2023-04-03T05:43:37;15.67;;;11.27;;
12474;SDS011;6302;42.624;23.334;2023-04-03T05:46:04;10.57;;;7.03;;
12474;SDS011;6302;42.624;23.334;2023-04-03T05:48:34;12.60;;;7.60;;
12474;SDS011;6302;42.624;23.334;2023-04-03T05:51:03;12.30;;;7.23;;
12474;SDS011;6302;42.624;23.334;2023-04-03T05:53:31;12.30;;;6.20;;
12474;SDS011;6302;42.624;23.334;2023-04-03T05:56:01;6.03;;;5.33;;
12474;SDS011;6302;42.624;23.334;2023-04-03T05:58:28;18.00;;;9.73;;
12474;SDS011;6302;42.624;23.334;2023-04-03T06:00:55;13.03;;;8.80;;
12474;SDS011;6302;42.624;23.334;2023-04-03T06:03:22;10.57;;;7.07;;
12474;SDS011;6302;42.624;23.334;2023-04-03T06:05:49;8.63;;;5.37;;
12474;SDS011;6302;42.624;23.334;2023-04-03T06:08:17;7.87;;;5.13;;
12474;SDS011;6302;42.624;23.334;2023-04-03T06:10:44;8.13;;;6.27;;
12474;SDS011;6302;42.624;23.334;2023-04-03T06:13:11;12.30;;;6.07;;
12474;SDS011;6302;42.624;23.334;2023-04-03T06:15:38;12.10;;;5.63;;
12474;SDS011;6302;42.624;23.334;2023-04-03T06:18:05;8.63;;;7.30;;
12474;SDS011;6302;42.624;23.334;2023-04-03T06:20:33;20.30;;;13.27;;
12474;SDS011;6302;42.624;23.334;2023-04-03T06:23:00;21.03;;;14.83;;
12474;SDS011;6302;42.624;23.334;2023-04-03T06:25:28;17.10;;;12.30;;
12474;SDS011;6302;42.624;23.334;2023-04-03T06:27:56;13.77;;;12.37;;
12474;SDS011;6302;42.624;23.334;2023-04-03T06:30:23;15.07;;;8.33;;
12474;SDS011;6302;42.624;23.334;2023-04-03T06:32:50;14.50;;;7.00;;
12474;SDS011;6302;42.624;23.334;2023-04-03T06:35:18;9.57;;;6.60;;
12474;SDS011;6302;42.624;23.334;2023-04-03T06:37:46;8.67;;;6.20;;
12474;SDS011;6302;42.624;23.334;2023-04-03T06:40:14;7.73;;;5.43;;
12474;SDS011;6302;42.624;23.334;2023-04-03T06:42:46;7.97;;;5.63;;
12474;SDS011;6302;42.624;23.334;2023-04-03T06:45:12;7.20;;;6.50;;
12474;SDS011;6302;42.624;23.334;2023-04-03T06:47:39;13.87;;;7.00;;
12474;SDS011;6302;42.624;23.334;2023-04-03T06:50:07;12.70;;;8.00;;
12474;SDS011;6302;42.624;23.334;2023-04-03T06:52:36;11.17;;;7.40;;
12474;SDS011;6302;42.624;23.334;2023-04-03T06:55:05;11.13;;;7.37;;
12474;SDS011;6302;42.624;23.334;2023-04-03T06:57:32;12.77;;;7.20;;
12474;SDS011;6302;42.624;23.334;2023-04-03T07:00:00;19.13;;;10.60;;
12474;SDS011;6302;42.624;23.334;2023-04-03T07:02:29;12.37;;;7.73;;
12474;SDS011;6302;42.624;23.334;2023-04-03T07:04:56;7.20;;;5.20;;
12474;SDS011;6302;42.624;23.334;2023-04-03T07:07:22;9.93;;;6.93;;
12474;SDS011;6302;42.624;23.334;2023-04-03T07:09:49;7.13;;;5.10;;
12474;SDS011;6302;42.624;23.334;2023-04-03T07:12:16;5.73;;;4.80;;
12474;SDS011;6302;42.624;23.334;2023-04-03T07:14:43;7.47;;;5.47;;
12474;SDS011;6302;42.624;23.334;2023-04-03T07:17:11;11.90;;;5.57;;
12474;SDS011;6302;42.624;23.334;2023-04-03T07:19:38;11.07;;;5.93;;
12474;SDS011;6302;42.624;23.334;2023-04-03T07:22:05;6.47;;;5.80;;
12474;SDS011;6302;42.624;23.334;2023-04-03T07:24:32;12.53;;;7.00;;
12474;SDS011;6302;42.624;23.334;2023-04-03T07:27:00;11.00;;;6.37;;
12474;SDS011;6302;42.624;23.334;2023-04-03T07:29:27;14.77;;;9.27;;
12474;SDS011;6302;42.624;23.334;2023-04-03T07:31:55;15.17;;;8.90;;
12474;SDS011;6302;42.624;23.334;2023-04-03T07:34:23;10.40;;;7.50;;
12474;SDS011;6302;42.624;23.334;2023-04-03T07:36:50;15.07;;;10.13;;
12474;SDS011;6302;42.624;23.334;2023-04-03T07:39:17;12.30;;;8.30;;
12474;SDS011;6302;42.624;23.334;2023-04-03T07:41:45;11.33;;;8.43;;
12474;SDS011;6302;42.624;23.334;2023-04-03T07:44:12;13.83;;;8.87;;
12474;SDS011;6302;42.624;23.334;2023-04-03T07:46:38;10.30;;;8.07;;
12474;SDS011;6302;42.624;23.334;2023-04-03T07:49:05;10.87;;;8.30;;
12474;SDS011;6302;42.624;23.334;2023-04-03T07:51:34;14.40;;;8.90;;
12474;SDS011;6302;42.624;23.334;2023-04-03T07:54:00;11.97;;;8.53;;
12474;SDS011;6302;42.624;23.334;2023-04-03T07:56:27;12.37;;;8.20;;
12474;SDS011;6302;42.624;23.334;2023-04-03T07:58:54;11.50;;;9.07;;
12474;SDS011;6302;42.624;23.334;2023-04-03T08:01:21;14.87;;;8.80;;
12474;SDS011;6302;42.624;23.334;2023-04-03T08:03:48;15.63;;;9.60;;
12474;SDS011;6302;42.624;23.334;2023-04-03T08:06:15;13.80;;;8.70;;
12474;SDS011;6302;42.624;23.334;2023-04-03T08:08:44;12.97;;;8.33;;
12474;SDS011;6302;42.624;23.334;2023-04-03T08:11:11;15.10;;;8.27;;
12474;SDS011;6302;42.624;23.334;2023-04-03T08:13:38;12.23;;;8.40;;
12474;SDS011;6302;42.624;23.334;2023-04-03T08:16:10;13.57;;;9.33;;
12474;SDS011;6302;42.624;23.334;2023-04-03T08:18:38;14.70;;;8.70;;
12474;SDS011;6302;42.624;23.334;2023-04-03T08:21:06;15.77;;;9.60;;
12474;SDS011;6302;42.624;23.334;2023-04-03T08:23:33;16.70;;;10.07;;
12474;SDS011;6302;42.624;23.334;2023-04-03T08:26:06;11.33;;;9.73;;
12474;SDS011;6302;42.624;23.334;2023-04-03T08:28:34;17.00;;;11.03;;
12474;SDS011;6302;42.624;23.334;2023-04-03T08:31:04;13.37;;;9.80;;
12474;SDS011;6302;42.624;23.334;2023-04-03T08:33:32;14.53;;;9.50;;
12474;SDS011;6302;42.624;23.334;2023-04-03T08:36:00;15.83;;;8.83;;
12474;SDS011;6302;42.624;23.334;2023-04-03T08:38:28;14.30;;;10.00;;
12474;SDS011;6302;42.624;23.334;2023-04-03T08:41:02;15.40;;;9.03;;
12474;SDS011;6302;42.624;23.334;2023-04-03T08:43:39;15.70;;;9.00;;
12474;SDS011;6302;42.624;23.334;2023-04-03T08:46:14;15.13;;;9.27;;
12474;SDS011;6302;42.624;23.334;2023-04-03T08:48:47;10.73;;;8.53;;
12474;SDS011;6302;42.624;23.334;2023-04-03T08:51:17;14.17;;;8.23;;
12474;SDS011;6302;42.624;23.334;2023-04-03T08:53:49;9.77;;;7.60;;
12474;SDS011;6302;42.624;23.334;2023-04-03T08:56:24;12.00;;;8.20;;
12474;SDS011;6302;42.624;23.334;2023-04-03T08:58:52;10.63;;;7.60;;
12474;SDS011;6302;42.624;23.334;2023-04-03T09:01:23;8.23;;;7.03;;
12474;SDS011;6302;42.624;23.334;2023-04-03T09:03:53;10.90;;;7.10;;
12474;SDS011;6302;42.624;23.334;2023-04-03T09:06:21;7.43;;;6.60;;
12474;SDS011;6302;42.624;23.334;2023-04-03T09:08:50;8.77;;;5.50;;
12474;SDS011;6302;42.624;23.334;2023-04-03T09:11:33;8.10;;;5.33;;
12474;SDS011;6302;42.624;23.334;2023-04-03T09:14:07;7.30;;;4.17;;
12474;SDS011;6302;42.624;23.334;2023-04-03T09:16:43;3.87;;;2.70;;
12474;SDS011;6302;42.624;23.334;2023-04-03T09:19:18;2.93;;;2.00;;
12474;SDS011;6302;42.624;23.334;2023-04-03T09:21:54;1.73;;;1.63;;
12474;SDS011;6302;42.624;23.334;2023-04-03T09:24:23;1.60;;;1.50;;
12474;SDS011;6302;42.624;23.334;2023-04-03T09:26:53;2.23;;;2.00;;
12474;SDS011;6302;42.624;23.334;2023-04-03T09:29:24;1.90;;;1.80;;
12474;SDS011;6302;42.624;23.334;2023-04-03T09:31:52;2.00;;;1.70;;
12474;SDS011;6302;42.624;23.334;2023-04-03T09:34:26;3.10;;;2.13;;
12474;SDS011;6302;42.624;23.334;2023-04-03T09:36:55;1.30;;;1.20;;
12474;SDS011;6302;42.624;23.334;2023-04-03T09:39:23;1.93;;;1.70;;
12474;SDS011;6302;42.624;23.334;2023-04-03T09:42:00;1.70;;;1.60;;
12474;SDS011;6302;42.624;23.334;2023-04-03T09:44:29;2.20;;;1.70;;
12474;SDS011;6302;42.624;23.334;2023-04-03T09:46:57;1.60;;;1.50;;
12474;SDS011;6302;42.624;23.334;2023-04-03T09:49:25;1.60;;;1.50;;
12474;SDS011;6302;42.624;23.334;2023-04-03T09:51:52;1.63;;;1.30;;
12474;SDS011;6302;42.624;23.334;2023-04-03T09:57:09;1.67;;;1.57;;
12474;SDS011;6302;42.624;23.334;2023-04-03T09:59:43;1.70;;;1.60;;
12474;SDS011;6302;42.624;23.334;2023-04-03T10:05:02;2.77;;;1.67;;
12474;SDS011;6302;42.624;23.334;2023-04-03T10:07:31;4.30;;;1.60;;
12474;SDS011;6302;42.624;23.334;2023-04-03T10:10:00;3.10;;;1.70;;
12474;SDS011;6302;42.624;23.334;2023-04-03T10:12:30;2.70;;;1.80;;
12474;SDS011;6302;42.624;23.334;2023-04-03T10:14:58;2.40;;;1.87;;
12474;SDS011;6302;42.624;23.334;2023-04-03T10:17:35;2.47;;;2.27;;
12474;SDS011;6302;42.624;23.334;2023-04-03T10:20:12;1.80;;;1.70;;
12474;SDS011;6302;42.624;23.334;2023-04-03T10:22:54;4.17;;;1.67;;
12474;SDS011;6302;42.624;23.334;2023-04-03T10:25:28;1.80;;;1.70;;
12474;SDS011;6302;42.624;23.334;2023-04-03T10:28:03;2.13;;;1.40;;
12474;SDS011;6302;42.624;23.334;2023-04-03T10:30:38;1.70;;;1.60;;
12474;SDS011;6302;42.624;23.334;2023-04-03T10:33:18;1.93;;;1.60;;
12474;SDS011;6302;42.624;23.334;2023-04-03T10:35:57;1.80;;;1.60;;
12474;SDS011;6302;42.624;23.334;2023-04-03T10:38:37;2.80;;;1.67;;
12474;SDS011;6302;42.624;23.334;2023-04-03T10:41:16;2.30;;;1.73;;
12474;SDS011;6302;42.624;23.334;2023-04-03T10:43:53;1.93;;;1.73;;
12474;SDS011;6302;42.624;23.334;2023-04-03T10:46:28;2.20;;;1.90;;
12474;SDS011;6302;42.624;23.334;2023-04-03T10:49:05;1.70;;;1.60;;
12474;SDS011;6302;42.624;23.334;2023-04-03T10:51:44;1.90;;;1.67;;
12474;SDS011;6302;42.624;23.334;2023-04-03T10:54:15;2.03;;;1.83;;
12474;SDS011;6302;42.624;23.334;2023-04-03T10:56:48;3.63;;;1.90;;
12474;SDS011;6302;42.624;23.334;2023-04-03T10:59:21;2.00;;;1.80;;
12474;SDS011;6302;42.624;23.334;2023-04-03T11:01:53;2.53;;;1.73;;
12474;SDS011;6302;42.624;23.334;2023-04-03T11:04:22;3.40;;;2.20;;
12474;SDS011;6302;42.624;23.334;2023-04-03T11:06:53;2.40;;;2.10;;
12474;SDS011;6302;42.624;23.334;2023-04-03T11:09:25;2.33;;;2.20;;
12474;SDS011;6302;42.624;23.334;2023-04-03T11:11:55;2.33;;;2.00;;
12474;SDS011;6302;42.624;23.334;2023-04-03T11:14:29;2.40;;;2.20;;
12474;SDS011;6302;42.624;23.334;2023-04-03T11:19:47;3.73;;;2.80;;
12474;SDS011;6302;42.624;23.334;2023-04-03T11:22:22;3.83;;;2.87;;
12474;SDS011;6302;42.624;23.334;2023-04-03T11:24:55;3.97;;;3.20;;
12474;SDS011;6302;42.624;23.334;2023-04-03T11:27:26;4.70;;;3.33;;
12474;SDS011;6302;42.624;23.334;2023-04-03T11:29:59;4.77;;;3.80;;
12474;SDS011;6302;42.624;23.334;2023-04-03T11:32:29;6.13;;;4.37;;
12474;SDS011;6302;42.624;23.334;2023-04-03T11:35:07;5.80;;;4.93;;
12474;SDS011;6302;42.624;23.334;2023-04-03T11:37:37;7.47;;;5.90;;
12474;SDS011;6302;42.624;23.334;2023-04-03T11:40:06;9.37;;;5.57;;
12474;SDS011;6302;42.624;23.334;2023-04-03T11:42:48;4.90;;;4.40;;
12474;SDS011;6302;42.624;23.334;2023-04-03T11:48:04;5.13;;;4.53;;
12474;SDS011;6302;42.624;23.334;2023-04-03T11:50:39;5.30;;;4.80;;
12474;SDS011;6302;42.624;23.334;2023-04-03T11:53:25;6.10;;;5.30;;
12474;SDS011;6302;42.624;23.334;2023-04-03T11:55:54;6.53;;;4.93;;
12474;SDS011;6302;42.624;23.334;2023-04-03T11:58:42;7.00;;;4.80;;
12474;SDS011;6302;42.624;23.334;2023-04-03T12:01:45;4.50;;;3.90;;
12474;SDS011;6302;42.624;23.334;2023-04-03T12:04:13;8.37;;;4.50;;
12474;SDS011;6302;42.624;23.334;2023-04-03T12:12:43;4.90;;;4.50;;
12474;SDS011;6302;42.624;23.334;2023-04-03T12:21:18;4.63;;;4.17;;
12474;SDS011;6302;42.624;23.334;2023-04-03T12:23:58;4.90;;;4.40;;
12474;SDS011;6302;42.624;23.334;2023-04-03T12:26:28;4.87;;;4.07;;
12474;SDS011;6302;42.624;23.334;2023-04-03T12:28:59;3.60;;;3.30;;
12474;SDS011;6302;42.624;23.334;2023-04-03T12:31:38;3.77;;;3.07;;
12474;SDS011;6302;42.624;23.334;2023-04-03T12:34:15;4.33;;;3.13;;
12474;SDS011;6302;42.624;23.334;2023-04-03T12:36:54;3.30;;;3.00;;
12474;SDS011;6302;42.624;23.334;2023-04-03T12:39:48;4.10;;;3.43;;
12474;SDS011;6302;42.624;23.334;2023-04-03T12:42:30;3.40;;;3.20;;
12474;SDS011;6302;42.624;23.334;2023-04-03T12:45:09;3.43;;;3.20;;
12474;SDS011;6302;42.624;23.334;2023-04-03T12:47:44;2.93;;;2.63;;
12474;SDS011;6302;42.624;23.334;2023-04-03T12:50:18;4.03;;;3.20;;
12474;SDS011;6302;42.624;23.334;2023-04-03T12:52:52;3.30;;;3.00;;
12474;SDS011;6302;42.624;23.334;2023-04-03T12:55:24;5.33;;;2.77;;
12474;SDS011;6302;42.624;23.334;2023-04-03T12:57:51;3.03;;;2.83;;
12474;SDS011;6302;42.624;23.334;2023-04-03T13:00:29;4.83;;;3.43;;
12474;SDS011;6302;42.624;23.334;2023-04-03T13:03:01;5.17;;;3.90;;
12474;SDS011;6302;42.624;23.334;2023-04-03T13:05:30;4.20;;;3.63;;
12474;SDS011;6302;42.624;23.334;2023-04-03T13:08:00;4.73;;;3.90;;
12474;SDS011;6302;42.624;23.334;2023-04-03T13:10:30;3.70;;;3.40;;
12474;SDS011;6302;42.624;23.334;2023-04-03T13:13:07;4.83;;;3.53;;
12474;SDS011;6302;42.624;23.334;2023-04-03T13:15:40;4.47;;;4.07;;
12474;SDS011;6302;42.624;23.334;2023-04-03T13:18:21;4.20;;;3.80;;
12474;SDS011;6302;42.624;23.334;2023-04-03T13:20:52;5.33;;;3.70;;
12474;SDS011;6302;42.624;23.334;2023-04-03T13:23:24;4.03;;;3.57;;
12474;SDS011;6302;42.624;23.334;2023-04-03T13:25:51;3.57;;;3.27;;
12474;SDS011;6302;42.624;23.334;2023-04-03T13:28:19;3.57;;;3.30;;
12474;SDS011;6302;42.624;23.334;2023-04-03T13:30:55;3.23;;;2.90;;
12474;SDS011;6302;42.624;23.334;2023-04-03T13:33:28;3.77;;;3.37;;
12474;SDS011;6302;42.624;23.334;2023-04-03T13:35:58;3.47;;;3.17;;
12474;SDS011;6302;42.624;23.334;2023-04-03T13:38:31;3.57;;;3.27;;
12474;SDS011;6302;42.624;23.334;2023-04-03T13:41:03;3.53;;;3.23;;
12474;SDS011;6302;42.624;23.334;2023-04-03T13:43:33;4.03;;;3.63;;
12474;SDS011;6302;42.624;23.334;2023-04-03T13:46:05;4.70;;;3.50;;
12474;SDS011;6302;42.624;23.334;2023-04-03T13:48:49;3.83;;;2.77;;
12474;SDS011;6302;42.624;23.334;2023-04-03T13:51:18;3.97;;;3.50;;
12474;SDS011;6302;42.624;23.334;2023-04-03T13:53:51;3.73;;;2.97;;
12474;SDS011;6302;42.624;23.334;2023-04-03T13:56:21;3.60;;;3.20;;
12474;SDS011;6302;42.624;23.334;2023-04-03T13:59:00;4.13;;;3.20;;
12474;SDS011;6302;42.624;23.334;2023-04-03T14:01:37;3.57;;;3.27;;
12474;SDS011;6302;42.624;23.334;2023-04-03T14:04:13;3.93;;;3.63;;
12474;SDS011;6302;42.624;23.334;2023-04-03T14:06:42;3.60;;;3.30;;
12474;SDS011;6302;42.624;23.334;2023-04-03T14:09:10;3.50;;;3.20;;
12474;SDS011;6302;42.624;23.334;2023-04-03T14:11:37;4.60;;;4.20;;
12474;SDS011;6302;42.624;23.334;2023-04-03T14:14:06;5.77;;;5.17;;
12474;SDS011;6302;42.624;23.334;2023-04-03T14:16:40;4.50;;;4.10;;
12474;SDS011;6302;42.624;23.334;2023-04-03T14:19:14;3.93;;;3.60;;
12474;SDS011;6302;42.624;23.334;2023-04-03T14:21:44;5.07;;;3.53;;
12474;SDS011;6302;42.624;23.334;2023-04-03T14:24:12;3.80;;;3.37;;
12474;SDS011;6302;42.624;23.334;2023-04-03T14:26:39;3.60;;;3.33;;
12474;SDS011;6302;42.624;23.334;2023-04-03T14:29:09;4.23;;;3.80;;
12474;SDS011;6302;42.624;23.334;2023-04-03T14:31:37;4.27;;;3.87;;
12474;SDS011;6302;42.624;23.334;2023-04-03T14:34:03;4.13;;;3.80;;
12474;SDS011;6302;42.624;23.334;2023-04-03T14:36:30;4.20;;;3.53;;
12474;SDS011;6302;42.624;23.334;2023-04-03T14:38:58;3.83;;;3.43;;
12474;SDS011;6302;42.624;23.334;2023-04-03T14:41:27;4.73;;;3.10;;
12474;SDS011;6302;42.624;23.334;2023-04-03T14:43:54;3.60;;;3.30;;
12474;SDS011;6302;42.624;23.334;2023-04-03T14:46:21;3.20;;;2.90;;
12474;SDS011;6302;42.624;23.334;2023-04-03T14:48:51;3.17;;;2.87;;
12474;SDS011;6302;42.624;23.334;2023-04-03T14:51:18;2.97;;;2.67;;
12474;SDS011;6302;42.624;23.334;2023-04-03T14:53:45;3.23;;;2.90;;
12474;SDS011;6302;42.624;23.334;2023-04-03T14:56:12;3.40;;;3.10;;
12474;SDS011;6302;42.624;23.334;2023-04-03T14:58:42;3.47;;;3.17;;
12474;SDS011;6302;42.624;23.334;2023-04-03T15:01:10;3.63;;;3.33;;
12474;SDS011;6302;42.624;23.334;2023-04-03T15:03:39;3.60;;;3.30;;
12474;SDS011;6302;42.624;23.334;2023-04-03T15:06:06;3.30;;;3.10;;
12474;SDS011;6302;42.624;23.334;2023-04-03T15:08:35;3.67;;;3.30;;
12474;SDS011;6302;42.624;23.334;2023-04-03T15:11:02;3.20;;;2.90;;
12474;SDS011;6302;42.624;23.334;2023-04-03T15:13:29;3.33;;;3.03;;
12474;SDS011;6302;42.624;23.334;2023-04-03T15:15:57;2.87;;;2.67;;
12474;SDS011;6302;42.624;23.334;2023-04-03T15:18:25;2.93;;;2.73;;
12474;SDS011;6302;42.624;23.334;2023-04-03T15:20:53;2.70;;;2.50;;
12474;SDS011;6302;42.624;23.334;2023-04-03T15:23:21;2.60;;;2.40;;
12474;SDS011;6302;42.624;23.334;2023-04-03T15:25:51;2.60;;;2.40;;